Poa, Brazil
Current Conditions -  °F | °C
As of 2:40 PM on Friday 19 Dec 2014 (Local Time) from SBGR Reporting Station
Thunderstorm Thunderstorm  
Wind Chill: 26°   Ceiling: 3000
Heat Index: 27°   Visibility: 0.62mi
Dew Point: 19°   Wind: 8mph
Humidity: 65%   Direction: 280°W
Pressure: 29.91"   Gusts: NA
Location:  23.52°S, 46.35°W
Report Text: SBGR 191640Z 28007KT 240V360 1000 R27R/1100U R27L/1300D R09L/P2000R09R/P2000 +TSRA SCT020CB OVC030 26/19 Q1013
Loading
Personal Weather Stations






























Interactive Weather Map New forecast layout! Learn more

10-Day Weather Forecast

Advertisements
Track Severe Weather on mobile